Pickstown, South Dakota
Current Conditions -  °F | °C
As of 11:15 AM on Thursday 18 Dec 2014 (Local Time) from KONL Reporting Station
Haze Haze  
Wind Chill: -7°   Ceiling: 700
Heat Index: -3°   Visibility: 5mi
Dew Point: -4°   Wind: 5mph
Humidity: 96%   Direction: 180°S
Pressure: 30.15"   Gusts: NA
Location:  43.07°N, 98.53°W
Report Text: KONL 181715Z AUTO 18004KT 5SM BR OVC007 M03/M04 A3015 RMK AO2 T10351040
Loading
Personal Weather Stations






























Interactive Weather Map New forecast layout! Learn more

10-Day Weather Forecast

Advertisements
Track Severe Weather on mobile